createdAt,value
2019-02-04T00:00:30.700Z,13.17
2019-02-04T00:06:36.673Z,13.23
2019-02-04T00:12:42.405Z,12.40
2019-02-04T00:18:48.439Z,13.33
2019-02-04T00:24:54.193Z,12.60
2019-02-04T00:31:00.398Z,14.10
2019-02-04T00:37:06.274Z,15.97
2019-02-04T00:43:12.507Z,15.40
2019-02-04T00:49:18.364Z,15.30
2019-02-04T00:55:24.334Z,14.13
2019-02-04T01:01:30.470Z,14.80
2019-02-04T01:07:36.183Z,13.90
2019-02-04T01:13:42.167Z,14.87
2019-02-04T01:19:48.260Z,13.57
2019-02-04T01:25:54.141Z,15.70
2019-02-04T01:31:59.960Z,16.77
2019-02-04T01:38:05.702Z,16.57
2019-02-04T01:44:11.986Z,18.77
2019-02-04T01:50:20.478Z,18.37
2019-02-04T01:56:26.256Z,19.23
2019-02-04T02:02:32.022Z,18.50
2019-02-04T02:08:37.743Z,19.10
2019-02-04T02:14:43.473Z,20.60
2019-02-04T02:20:51.365Z,20.43
2019-02-04T02:26:57.320Z,22.17
2019-02-04T02:33:03.292Z,23.07
2019-02-04T02:39:10.849Z,22.83
2019-02-04T02:45:16.796Z,23.97
2019-02-04T02:51:22.590Z,24.13
2019-02-04T02:57:28.457Z,23.17
2019-02-04T03:03:34.217Z,23.83
2019-02-04T03:09:40.322Z,23.87
2019-02-04T03:15:46.060Z,24.20
2019-02-04T03:21:52.209Z,24.30
2019-02-04T03:27:57.972Z,24.93
2019-02-04T03:34:03.666Z,24.60
2019-02-04T03:40:11.737Z,25.20
2019-02-04T03:46:17.934Z,25.80
2019-02-04T03:52:23.827Z,24.00
2019-02-04T03:58:30.146Z,23.83
2019-02-04T04:04:36.128Z,24.77
2019-02-04T04:10:41.963Z,23.93
2019-02-04T04:16:47.693Z,22.27
2019-02-04T04:22:53.718Z,22.50
2019-02-04T04:28:59.431Z,23.03
2019-02-04T04:35:05.741Z,21.53
2019-02-04T04:41:11.870Z,20.63
2019-02-04T04:47:20.645Z,20.47
2019-02-04T04:53:26.592Z,19.73
2019-02-04T04:59:32.544Z,19.33
2019-02-04T05:05:38.340Z,20.67
2019-02-04T05:11:44.374Z,20.40
2019-02-04T05:17:52.769Z,20.80
2019-02-04T05:23:58.753Z,21.47
2019-02-04T05:30:04.868Z,21.07
2019-02-04T05:36:10.822Z,20.27
2019-02-04T05:42:16.813Z,18.60
2019-02-04T05:48:23.268Z,19.10
2019-02-04T05:54:29.219Z,18.60
2019-02-04T06:00:44.598Z,18.70
2019-02-04T06:06:50.634Z,19.83
2019-02-04T06:12:56.501Z,18.33
2019-02-04T06:19:02.586Z,19.27
2019-02-04T06:25:08.581Z,18.13
2019-02-04T06:31:14.330Z,18.33
2019-02-04T06:37:20.379Z,17.77
2019-02-04T06:43:26.169Z,17.13
2019-02-04T06:49:32.075Z,17.10
2019-02-04T06:55:38.155Z,16.47
2019-02-04T07:01:45.180Z,16.07
2019-02-04T07:07:51.080Z,16.23
2019-02-04T07:13:56.955Z,15.70
2019-02-04T07:20:02.744Z,15.00
2019-02-04T07:26:09.300Z,16.47
2019-02-04T07:32:16.417Z,15.43
2019-02-04T07:38:23.066Z,15.43
2019-02-04T07:44:29.149Z,14.63
2019-02-04T07:50:35.208Z,15.27
2019-02-04T07:56:41.006Z,15.97
2019-02-04T08:02:47.207Z,14.83
2019-02-04T08:08:53.249Z,14.40
2019-02-04T08:14:59.280Z,15.87
2019-02-04T08:21:05.281Z,14.67
2019-02-04T08:27:11.271Z,13.47
2019-02-04T08:33:17.293Z,13.17
2019-02-04T08:39:23.512Z,13.77
2019-02-04T08:45:29.531Z,13.93
2019-02-04T08:51:35.482Z,12.57
2019-02-04T08:57:41.758Z,12.00
2019-02-04T09:03:47.915Z,11.80
2019-02-04T09:09:54.263Z,11.23
2019-02-04T09:16:00.250Z,11.40
2019-02-04T09:22:06.130Z,11.00
2019-02-04T09:28:12.171Z,11.93
2019-02-04T09:34:17.928Z,11.53
2019-02-04T09:40:39.885Z,11.97
2019-02-04T09:46:46.157Z,10.50
2019-02-04T09:52:52.045Z,11.30
2019-02-04T09:58:57.831Z,10.80
2019-02-04T10:05:05.930Z,10.37
2019-02-04T10:11:11.633Z,10.17
2019-02-04T10:17:17.443Z,10.47
2019-02-04T10:23:23.694Z,9.93
2019-02-04T10:29:29.455Z,9.47
2019-02-04T10:35:35.221Z,10.33
2019-02-04T10:41:41.040Z,9.73
2019-02-04T10:47:47.036Z,9.17
2019-02-04T10:53:52.983Z,9.10
2019-02-04T10:59:58.767Z,9.43
2019-02-04T11:06:04.967Z,8.50
2019-02-04T11:12:11.042Z,9.23
2019-02-04T11:18:17.673Z,8.53
2019-02-04T11:24:42.571Z,8.07
2019-02-04T11:31:02.581Z,8.53
2019-02-04T11:37:08.571Z,7.83
2019-02-04T11:43:14.596Z,8.40
2019-02-04T11:49:20.366Z,8.57
2019-02-04T11:55:27.544Z,8.87
2019-02-04T12:01:41.026Z,9.90
2019-02-04T12:07:46.790Z,10.13
2019-02-04T12:13:52.558Z,8.90
2019-02-04T12:19:58.620Z,7.40
2019-02-04T12:26:05.004Z,6.80
2019-02-04T12:32:11.101Z,8.27
2019-02-04T12:38:16.831Z,6.57
2019-02-04T12:44:22.968Z,8.23
2019-02-04T12:50:30.999Z,6.37
2019-02-04T12:56:37.155Z,6.63
2019-02-04T13:02:43.983Z,5.37
2019-02-04T13:08:50.195Z,6.17
2019-02-04T13:14:59.244Z,5.83
2019-02-04T13:21:22.332Z,5.23
2019-02-04T13:27:30.990Z,5.43
2019-02-04T13:33:36.891Z,5.00
2019-02-04T13:39:42.878Z,4.97
2019-02-04T13:45:48.776Z,5.03
2019-02-04T13:51:57.560Z,4.37
2019-02-04T13:58:02.056Z,3.97
2019-02-04T14:04:09.959Z,3.10
2019-02-04T14:10:21.228Z,3.80
2019-02-04T14:16:27.623Z,3.27
2019-02-04T14:22:33.551Z,4.53
2019-02-04T14:28:39.799Z,3.20
2019-02-04T14:34:45.545Z,3.47
2019-02-04T14:40:51.650Z,3.60
2019-02-04T14:47:29.036Z,3.43
2019-02-04T14:54:46.311Z,3.60
2019-02-04T15:01:48.746Z,3.87
2019-02-04T15:08:36.042Z,6.33
2019-02-04T15:15:58.071Z,3.80
2019-02-04T15:22:47.885Z,4.13
2019-02-04T15:29:27.804Z,3.80
2019-02-04T15:36:23.330Z,4.33
2019-02-04T15:43:34.875Z,3.90
2019-02-04T15:50:47.199Z,4.37
2019-02-04T15:56:53.060Z,4.47
2019-02-04T16:02:59.000Z,4.50
2019-02-04T16:09:07.353Z,4.43
2019-02-04T16:15:15.199Z,4.77
2019-02-04T16:21:21.157Z,4.90
2019-02-04T16:27:27.969Z,4.70
2019-02-04T16:33:34.694Z,4.20
2019-02-04T16:39:43.517Z,3.60
2019-02-04T16:45:49.680Z,2.90
2019-02-04T16:51:55.826Z,3.57
2019-02-04T16:58:02.083Z,3.10
2019-02-04T17:04:08.621Z,3.23
2019-02-04T17:10:19.859Z,2.77
2019-02-04T17:16:30.541Z,2.53
2019-02-04T17:22:36.461Z,2.70
2019-02-04T17:28:45.689Z,3.20
2019-02-04T17:34:51.464Z,3.70
2019-02-04T17:40:58.807Z,3.80
2019-02-04T17:47:07.711Z,3.50
2019-02-04T17:53:13.480Z,3.83
2019-02-04T17:59:19.292Z,2.90
2019-02-04T18:05:28.492Z,2.90
2019-02-04T18:11:36.131Z,3.10
2019-02-04T18:17:42.020Z,3.20
2019-02-04T18:23:48.880Z,3.50
2019-02-04T18:29:54.661Z,3.77
2019-02-04T18:36:03.298Z,3.10
2019-02-04T18:42:09.359Z,3.33
2019-02-04T18:48:15.553Z,2.70
2019-02-04T18:54:21.742Z,2.70
2019-02-04T19:00:29.044Z,3.17
2019-02-04T19:06:34.860Z,3.33
2019-02-04T19:12:42.608Z,3.03
2019-02-04T19:18:52.841Z,3.40
2019-02-04T19:24:58.784Z,4.00
2019-02-04T19:31:31.536Z,4.10
2019-02-04T19:37:42.072Z,4.70
2019-02-04T19:43:47.988Z,4.27
2019-02-04T19:49:57.340Z,4.37
2019-02-04T19:56:03.623Z,4.40
2019-02-04T20:02:10.464Z,4.60
2019-02-04T20:08:16.210Z,4.07
2019-02-04T20:14:22.043Z,4.10
2019-02-04T20:20:28.781Z,4.23
2019-02-04T20:26:34.749Z,4.27
2019-02-04T20:32:40.565Z,4.20
2019-02-04T20:38:46.789Z,2.90
2019-02-04T20:44:52.698Z,4.00
2019-02-04T20:51:00.291Z,3.63
2019-02-04T20:57:06.397Z,3.70
2019-02-04T21:03:12.287Z,4.50
2019-02-04T21:09:18.462Z,4.27
2019-02-04T21:15:25.257Z,4.30
2019-02-04T21:21:40.316Z,4.37
2019-02-04T21:27:46.271Z,3.80
2019-02-04T21:33:52.455Z,4.20
2019-02-04T21:39:58.498Z,3.83
2019-02-04T21:46:04.393Z,3.57
2019-02-04T21:52:10.940Z,3.63
2019-02-04T21:58:16.786Z,3.30
2019-02-04T22:04:25.581Z,3.37
2019-02-04T22:10:32.564Z,3.70
2019-02-04T22:16:38.429Z,3.40
2019-02-04T22:23:03.481Z,3.73
2019-02-04T22:29:12.847Z,3.43
2019-02-04T22:35:18.687Z,3.17
2019-02-04T22:41:24.749Z,3.03
2019-02-04T22:47:30.926Z,2.90
2019-02-04T22:53:36.777Z,3.13
2019-02-04T22:59:42.494Z,3.13
2019-02-04T23:05:48.892Z,3.30
2019-02-04T23:11:54.868Z,3.30
2019-02-04T23:18:01.035Z,3.90
2019-02-04T23:24:08.540Z,4.03
2019-02-04T23:30:15.164Z,4.47
2019-02-04T23:36:21.472Z,3.90
2019-02-04T23:42:27.614Z,4.03
2019-02-04T23:48:33.363Z,4.40
2019-02-04T23:54:39.196Z,4.40
